Time;durP1;ratioP1;P1;durP2;ratioP2;P2;SDS_P1;SDS_P2;PMS_P1;PMS_P2;Temp;Humidity;BMP_temperature;BMP_pressure;BME280_temperature;BME280_humidity;BME280_pressure;Samples;Min_cycle;Max_cycle;Signal;HPM_P1;HPM_P2
2023/08/21 00:00:24;;;;;;;9.13;8.23;;;24.60;99.90;;;;;;6233220;28;89178;-68
2023/08/21 00:03:26;;;;;;;9.20;8.20;;;24.60;99.90;;;;;;6254191;28;89086;-68
2023/08/21 00:06:28;;;;;;;9.52;8.63;;;24.60;99.90;;;;;;6239733;28;89190;-69
2023/08/21 00:09:30;;;;;;;8.95;8.10;;;24.60;99.90;;;;;;6233061;28;89044;-68
2023/08/21 00:12:33;;;;;;;9.15;8.23;;;24.50;99.90;;;;;;6241607;28;88541;-68
2023/08/21 00:15:35;;;;;;;8.90;8.05;;;24.50;99.90;;;;;;6244956;28;87195;-68
2023/08/21 00:18:37;;;;;;;8.93;8.13;;;24.50;99.90;;;;;;6240773;28;88024;-68
2023/08/21 00:22:15;;;;;;;9.00;7.88;;;24.50;99.90;;;;;;6242972;28;89063;-69
2023/08/21 00:25:18;;;;;;;8.70;7.90;;;24.50;99.90;;;;;;6231950;28;90131;-68
2023/08/21 00:28:21;;;;;;;8.70;7.90;;;24.50;99.90;;;;;;6242718;28;89030;-68
2023/08/21 00:31:23;;;;;;;8.27;7.47;;;24.40;99.90;;;;;;6245402;28;89011;-68
2023/08/21 00:34:25;;;;;;;8.35;7.65;;;24.40;99.90;;;;;;6235447;27;89520;-68
2023/08/21 00:37:27;;;;;;;8.82;7.93;;;24.40;99.90;;;;;;6238329;28;89491;-68
2023/08/21 00:40:29;;;;;;;8.77;7.97;;;24.40;99.90;;;;;;6236197;28;89015;-68
2023/08/21 00:43:32;;;;;;;8.45;7.75;;;24.40;99.90;;;;;;6231363;28;89099;-68
2023/08/21 00:46:35;;;;;;;8.65;7.85;;;24.30;99.90;;;;;;6231867;28;88231;-68
2023/08/21 00:49:38;;;;;;;9.10;8.27;;;24.30;99.90;;;;;;6231429;28;89388;-69
2023/08/21 00:52:41;;;;;;;8.85;8.05;;;24.30;99.90;;;;;;6243151;27;89132;-68
2023/08/21 00:55:43;;;;;;;8.68;7.90;;;24.30;99.90;;;;;;6237610;27;89936;-68
2023/08/21 00:58:47;;;;;;;8.40;7.70;;;24.30;99.90;;;;;;6231718;28;88990;-68
2023/08/21 01:01:49;;;;;;;8.52;7.72;;;24.20;99.90;;;;;;6248319;28;88998;-68
2023/08/21 01:04:51;;;;;;;8.80;8.00;;;24.20;99.90;;;;;;6255552;27;89153;-68
2023/08/21 01:08:00;;;;;;;9.00;8.20;;;24.20;99.90;;;;;;6231572;28;89283;-68
2023/08/21 01:11:12;;;;;;;9.18;8.27;;;24.20;99.90;;;;;;6238067;28;89235;-68
2023/08/21 01:14:25;;;;;;;9.15;8.25;;;24.20;99.90;;;;;;6237043;28;89350;-68
2023/08/21 01:17:30;;;;;;;9.13;8.23;;;24.10;99.90;;;;;;6243687;27;88476;-68
2023/08/21 01:20:32;;;;;;;8.68;7.95;;;24.10;99.90;;;;;;6250885;28;89141;-68
2023/08/21 01:23:36;;;;;;;8.80;8.00;;;24.10;99.90;;;;;;6240770;28;89173;-65
2023/08/21 01:26:38;;;;;;;9.15;8.20;;;24.10;99.90;;;;;;6234278;28;90057;-69
2023/08/21 01:29:41;;;;;;;8.73;7.85;;;24.10;99.90;;;;;;6241059;27;89326;-68
2023/08/21 01:32:49;;;;;;;8.43;7.72;;;24.10;99.90;;;;;;6241034;28;89220;-68
2023/08/21 01:35:52;;;;;;;8.68;7.88;;;24.20;99.90;;;;;;6237588;27;89090;-68
2023/08/21 01:38:56;;;;;;;8.65;7.90;;;24.10;99.90;;;;;;6255667;27;88921;-68
2023/08/21 01:41:58;;;;;;;9.20;8.30;;;24.10;99.90;;;;;;6245007;28;89097;-68
2023/08/21 01:45:00;;;;;;;8.95;8.15;;;24.10;99.90;;;;;;6239639;28;88969;-68
2023/08/21 01:48:02;;;;;;;9.02;8.13;;;24.10;99.90;;;;;;6252821;28;88331;-68
2023/08/21 01:51:04;;;;;;;9.23;8.25;;;24.10;99.90;;;;;;6238562;28;89013;-68
2023/08/21 01:54:08;;;;;;;9.15;8.35;;;24.00;99.90;;;;;;6247732;28;88980;-68
2023/08/21 01:57:09;;;;;;;9.65;8.77;;;24.00;99.90;;;;;;6251900;27;90033;-68
2023/08/21 02:00:13;;;;;;;9.48;8.48;;;24.00;99.90;;;;;;6245592;28;89134;-68
2023/08/21 02:03:15;;;;;;;9.00;8.20;;;24.00;99.90;;;;;;6243370;27;88973;-68
2023/08/21 02:06:17;;;;;;;9.38;8.48;;;23.90;99.90;;;;;;6248848;27;89080;-68
2023/08/21 02:09:20;;;;;;;9.63;8.57;;;23.90;99.90;;;;;;6254462;28;89060;-69
2023/08/21 02:12:22;;;;;;;9.18;8.35;;;23.90;99.90;;;;;;6237740;28;89018;-69
2023/08/21 02:15:24;;;;;;;9.40;8.50;;;23.90;99.90;;;;;;6234794;28;89094;-69
2023/08/21 02:18:26;;;;;;;9.65;8.75;;;23.90;99.90;;;;;;6254772;28;88365;-69
2023/08/21 02:21:28;;;;;;;9.45;8.57;;;23.90;99.90;;;;;;6247844;27;89200;-69
2023/08/21 02:24:31;;;;;;;9.60;8.73;;;23.90;99.90;;;;;;6258925;28;89044;-68
2023/08/21 02:27:33;;;;;;;9.48;8.60;;;23.90;99.90;;;;;;6257189;28;90693;-69
2023/08/21 02:30:35;;;;;;;9.43;8.52;;;23.90;99.90;;;;;;6239373;27;89056;-68
2023/08/21 02:33:37;;;;;;;9.20;8.48;;;23.90;99.90;;;;;;6246129;27;89040;-69
2023/08/21 02:36:39;;;;;;;10.40;9.50;;;23.80;99.90;;;;;;6246816;28;89340;-68
2023/08/21 02:39:43;;;;;;;10.20;9.20;;;23.80;99.90;;;;;;6242954;28;89156;-69
2023/08/21 02:42:45;;;;;;;9.60;8.70;;;23.80;99.90;;;;;;6239730;28;89131;-69
2023/08/21 02:45:47;;;;;;;10.30;9.30;;;23.80;99.90;;;;;;6245684;27;88962;-68
2023/08/21 02:48:49;;;;;;;9.48;8.68;;;23.80;99.90;;;;;;6254402;27;88357;-68
2023/08/21 02:51:50;;;;;;;10.50;9.50;;;23.80;99.90;;;;;;6248663;28;88738;-67
2023/08/21 02:54:54;;;;;;;9.88;9.02;;;23.80;99.90;;;;;;6243184;28;88169;-68
2023/08/21 02:57:56;;;;;;;10.13;9.23;;;23.80;99.90;;;;;;6242711;27;90019;-68
2023/08/21 03:00:58;;;;;;;10.45;8.98;;;23.70;99.90;;;;;;6248274;28;89035;-68
2023/08/21 03:04:00;;;;;;;10.00;8.98;;;23.70;99.90;;;;;;6255894;27;89083;-69
2023/08/21 03:07:02;;;;;;;9.70;8.88;;;23.70;99.90;;;;;;6236941;28;87936;-68
2023/08/21 03:10:07;;;;;;;9.50;8.70;;;23.70;99.90;;;;;;6244568;28;89569;-68
2023/08/21 03:13:09;;;;;;;9.48;8.57;;;23.70;99.90;;;;;;6246245;28;89205;-68
2023/08/21 03:16:11;;;;;;;9.57;8.75;;;23.70;99.90;;;;;;6246622;28;89177;-67
2023/08/21 03:19:13;;;;;;;9.52;8.70;;;23.70;99.90;;;;;;6257342;28;88678;-68
2023/08/21 03:22:15;;;;;;;9.45;8.55;;;23.70;99.90;;;;;;6233053;28;89122;-68
2023/08/21 03:25:18;;;;;;;9.65;8.80;;;23.60;99.90;;;;;;6245829;28;88968;-68
2023/08/21 03:28:20;;;;;;;10.35;9.35;;;23.60;99.90;;;;;;6244181;27;90107;-68
2023/08/21 03:31:22;;;;;;;9.40;8.27;;;23.60;99.90;;;;;;6254857;28;89588;-68
2023/08/21 03:34:24;;;;;;;9.80;8.90;;;23.50;99.90;;;;;;6245919;28;89108;-68
2023/08/21 03:37:26;;;;;;;9.57;8.68;;;23.50;99.90;;;;;;6244550;28;89266;-68
2023/08/21 03:40:30;;;;;;;9.40;8.60;;;23.50;99.90;;;;;;6245473;28;89022;-68
2023/08/21 03:43:32;;;;;;;9.30;8.50;;;23.50;99.90;;;;;;6238633;28;89079;-68
2023/08/21 03:46:34;;;;;;;9.50;8.60;;;23.50;99.90;;;;;;6240329;28;89055;-68
2023/08/21 03:49:36;;;;;;;9.93;9.02;;;23.50;99.90;;;;;;6235186;28;87250;-68
2023/08/21 03:52:38;;;;;;;9.88;8.88;;;23.50;99.90;;;;;;6249670;28;89012;-68
2023/08/21 03:55:42;;;;;;;9.80;8.80;;;23.50;99.90;;;;;;6237729;28;89803;-68
2023/08/21 03:58:44;;;;;;;9.43;8.50;;;23.40;99.90;;;;;;6243943;28;90049;-68
2023/08/21 04:01:46;;;;;;;11.45;9.57;;;23.40;99.90;;;;;;6249837;28;89466;-68
2023/08/21 04:04:48;;;;;;;8.80;8.07;;;23.40;99.90;;;;;;6252042;27;88952;-68
2023/08/21 04:07:50;;;;;;;9.13;8.32;;;23.50;99.90;;;;;;6247476;28;89778;-68
2023/08/21 04:10:53;;;;;;;9.43;8.63;;;23.50;99.90;;;;;;6247477;27;89079;-68
2023/08/21 04:13:55;;;;;;;10.10;8.90;;;23.70;99.90;;;;;;6235638;28;88943;-68
2023/08/21 04:16:57;;;;;;;9.32;8.52;;;23.90;99.90;;;;;;6243800;28;89094;-69
2023/08/21 04:19:59;;;;;;;9.68;8.77;;;24.00;99.90;;;;;;6244301;28;88300;-69
2023/08/21 04:23:01;;;;;;;9.60;8.80;;;24.10;99.90;;;;;;6239348;28;89281;-69
2023/08/21 04:26:06;;;;;;;9.45;8.65;;;24.20;99.90;;;;;;6235061;28;88961;-69
2023/08/21 04:29:08;;;;;;;9.50;8.68;;;24.20;99.90;;;;;;6242212;28;90508;-70
2023/08/21 04:32:10;;;;;;;9.02;8.23;;;24.30;99.90;;;;;;6247627;28;89491;-70
2023/08/21 04:35:12;;;;;;;8.93;8.23;;;24.30;99.90;;;;;;6232476;28;88965;-71
2023/08/21 04:38:14;;;;;;;9.10;8.30;;;24.40;99.90;;;;;;6240273;28;89088;-70
2023/08/21 04:41:17;;;;;;;9.00;8.20;;;24.40;99.90;;;;;;6246367;27;89089;-71
2023/08/21 04:44:19;;;;;;;9.00;8.10;;;24.50;99.90;;;;;;6241938;28;89005;-70
2023/08/21 04:47:22;;;;;;;9.98;8.88;;;24.50;99.90;;;;;;6248703;28;89116;-70
2023/08/21 04:50:24;;;;;;;9.60;8.60;;;24.50;99.90;;;;;;6242726;28;87296;-70
2023/08/21 04:53:26;;;;;;;9.18;8.30;;;24.60;99.90;;;;;;6244297;28;88926;-70
2023/08/21 04:56:29;;;;;;;9.32;8.25;;;24.60;99.90;;;;;;6244429;28;89396;-70
2023/08/21 04:59:31;;;;;;;8.90;8.05;;;24.70;99.90;;;;;;6255071;28;90151;-70
2023/08/21 05:02:35;;;;;;;8.88;7.97;;;24.70;99.90;;;;;;6243892;28;89133;-70
2023/08/21 05:05:37;;;;;;;8.88;8.07;;;24.70;99.90;;;;;;6250507;27;89442;-70
2023/08/21 05:08:38;;;;;;;8.60;7.90;;;24.70;99.90;;;;;;6232081;28;89124;-70
2023/08/21 05:11:42;;;;;;;8.45;7.68;;;24.80;99.90;;;;;;6243638;28;89226;-71
2023/08/21 05:14:44;;;;;;;8.65;7.95;;;24.80;99.90;;;;;;6232010;28;89104;-70
2023/08/21 05:17:46;;;;;;;9.23;8.35;;;24.80;99.90;;;;;;6237834;28;89154;-70
2023/08/21 05:20:48;;;;;;;9.48;8.60;;;24.80;99.90;;;;;;6237622;28;88308;-71
2023/08/21 05:23:51;;;;;;;9.27;8.35;;;24.90;99.90;;;;;;6232640;27;88519;-70
2023/08/21 05:26:54;;;;;;;9.70;8.80;;;24.90;99.90;;;;;;6230385;28;89385;-70
2023/08/21 05:29:56;;;;;;;9.38;8.57;;;24.90;99.90;;;;;;6230299;28;89103;-70
2023/08/21 05:32:58;;;;;;;9.32;8.52;;;25.00;99.90;;;;;;6242895;28;89682;-70
2023/08/21 05:36:00;;;;;;;9.88;8.98;;;25.00;99.90;;;;;;6243190;28;89055;-71
2023/08/21 05:39:05;;;;;;;9.68;8.85;;;25.00;99.90;;;;;;6238094;28;88331;-71
2023/08/21 05:42:09;;;;;;;9.35;8.55;;;25.00;99.90;;;;;;6238023;28;89405;-71
2023/08/21 05:45:11;;;;;;;8.98;8.10;;;25.00;99.90;;;;;;6248071;27;89135;-71
2023/08/21 05:48:12;;;;;;;9.05;8.25;;;25.00;99.90;;;;;;6238631;28;89030;-71
2023/08/21 05:51:14;;;;;;;9.05;8.18;;;25.00;99.90;;;;;;6247127;28;88387;-71
2023/08/21 05:54:16;;;;;;;8.98;8.18;;;25.00;99.90;;;;;;6235209;27;89371;-71
2023/08/21 05:57:20;;;;;;;9.25;8.45;;;25.10;99.90;;;;;;6239359;28;89210;-71
2023/08/21 06:00:22;;;;;;;9.18;8.38;;;25.10;99.90;;;;;;6234440;28;89927;-71
2023/08/21 06:03:24;;;;;;;8.52;7.93;;;25.10;99.90;;;;;;6241329;28;89061;-71
2023/08/21 06:06:26;;;;;;;9.35;8.45;;;25.10;99.90;;;;;;6245309;27;89091;-71
2023/08/21 06:09:29;;;;;;;8.88;8.18;;;25.10;99.90;;;;;;6240427;28;89066;-71
2023/08/21 06:12:32;;;;;;;9.20;8.40;;;25.10;99.90;;;;;;6239506;28;89381;-71
2023/08/21 06:15:34;;;;;;;8.57;7.97;;;25.20;99.90;;;;;;6255580;28;89247;-71
2023/08/21 06:18:36;;;;;;;9.55;8.75;;;25.20;99.90;;;;;;6253727;28;89097;-71
2023/08/21 06:21:38;;;;;;;9.57;8.77;;;25.20;99.90;;;;;;6254205;28;88370;-72
2023/08/21 06:24:41;;;;;;;9.45;8.55;;;25.20;99.90;;;;;;6239417;28;89138;-71
2023/08/21 06:27:44;;;;;;;9.55;8.73;;;25.20;99.90;;;;;;6252960;27;89088;-72
2023/08/21 06:30:46;;;;;;;8.90;8.20;;;25.20;99.90;;;;;;6248379;27;90072;-71
2023/08/21 06:33:48;;;;;;;9.23;8.52;;;25.20;99.90;;;;;;6240117;28;88972;-71
2023/08/21 06:36:50;;;;;;;9.38;8.57;;;25.20;99.90;;;;;;6242380;28;88377;-71
2023/08/21 06:39:52;;;;;;;8.90;8.20;;;25.20;99.90;;;;;;6247524;28;89040;-71
2023/08/21 06:42:56;;;;;;;9.15;8.45;;;25.20;99.90;;;;;;6248288;27;89073;-71
2023/08/21 06:45:58;;;;;;;9.13;8.32;;;25.30;99.90;;;;;;6251572;28;88281;-71
2023/08/21 06:49:00;;;;;;;9.15;8.45;;;25.30;99.90;;;;;;6245443;27;89053;-71
2023/08/21 06:52:25;;;;;;;11.00;9.20;;;25.30;99.90;;;;;;6241276;28;88729;-71
2023/08/21 06:55:27;;;;;;;9.27;8.57;;;25.30;99.90;;;;;;6252722;28;89178;-71
2023/08/21 06:58:31;;;;;;;9.90;9.00;;;25.30;99.90;;;;;;6250514;28;89135;-71
2023/08/21 07:01:33;;;;;;;9.20;8.40;;;25.30;99.90;;;;;;6249550;27;90062;-71
2023/08/21 07:04:35;;;;;;;8.90;8.20;;;25.40;99.90;;;;;;6233582;28;89048;-72
2023/08/21 07:07:37;;;;;;;9.52;8.80;;;25.40;99.90;;;;;;6232753;27;89483;-71
2023/08/21 07:10:39;;;;;;;9.25;8.55;;;25.40;99.90;;;;;;6247492;27;88322;-71
2023/08/21 07:13:43;;;;;;;9.75;8.95;;;25.40;99.90;;;;;;6242505;27;89180;-70
2023/08/21 07:16:45;;;;;;;9.55;8.68;;;25.40;99.90;;;;;;6240453;27;89007;-70
2023/08/21 07:19:48;;;;;;;9.32;8.50;;;25.40;99.90;;;;;;6251934;27;87997;-69
2023/08/21 07:22:50;;;;;;;9.38;8.57;;;25.50;99.90;;;;;;6241251;28;88480;-70
2023/08/21 07:25:52;;;;;;;9.10;8.30;;;25.50;99.90;;;;;;6257576;28;89073;-71
2023/08/21 07:28:56;;;;;;;9.05;8.25;;;25.50;99.90;;;;;;6244564;27;89375;-70
2023/08/21 07:31:58;;;;;;;9.15;8.35;;;25.50;99.90;;;;;;6233084;28;90368;-70
2023/08/21 07:35:00;;;;;;;8.75;7.95;;;25.50;99.90;;;;;;6244676;28;89387;-70
2023/08/21 07:38:02;;;;;;;9.05;8.25;;;25.50;99.90;;;;;;6236384;27;89340;-70
2023/08/21 07:41:07;;;;;;;8.75;8.05;;;25.50;99.90;;;;;;6239050;28;87670;-70
2023/08/21 07:44:10;;;;;;;8.65;7.95;;;25.50;99.90;;;;;;6233596;28;89070;-70
2023/08/21 07:47:13;;;;;;;8.93;8.13;;;25.50;99.90;;;;;;6241696;28;89111;-70
2023/08/21 07:50:16;;;;;;;8.98;8.18;;;25.50;99.90;;;;;;6236766;28;88623;-70
2023/08/21 07:53:18;;;;;;;8.88;8.18;;;25.50;99.90;;;;;;6245062;27;87409;-70
2023/08/21 07:56:20;;;;;;;8.73;8.02;;;25.50;99.90;;;;;;6233875;28;89035;-70
2023/08/21 07:59:23;;;;;;;8.88;8.18;;;25.50;99.90;;;;;;6236241;27;87878;-70
2023/08/21 08:02:26;;;;;;;8.77;7.95;;;25.50;99.90;;;;;;6244088;28;89577;-70
2023/08/21 08:05:28;;;;;;;8.35;7.75;;;25.50;99.90;;;;;;6245796;28;89168;-70
2023/08/21 08:08:30;;;;;;;9.20;8.50;;;25.50;99.90;;;;;;6233016;28;89158;-70
2023/08/21 08:11:33;;;;;;;9.05;8.35;;;25.60;99.90;;;;;;6252556;28;89280;-71
2023/08/21 08:14:36;;;;;;;8.90;8.10;;;25.60;99.90;;;;;;6234025;28;89517;-71
2023/08/21 08:17:38;;;;;;;8.40;7.63;;;25.60;99.90;;;;;;6245808;28;89414;-71
2023/08/21 08:20:41;;;;;;;9.40;8.60;;;25.60;99.90;;;;;;6245577;28;89179;-71
2023/08/21 08:23:43;;;;;;;8.43;7.72;;;25.60;99.90;;;;;;6232980;28;88315;-70
2023/08/21 08:26:46;;;;;;;8.27;7.57;;;25.60;99.90;;;;;;6251154;28;89320;-71
2023/08/21 08:29:49;;;;;;;8.30;7.60;;;25.60;99.90;;;;;;6239652;28;89161;-70
2023/08/21 08:32:51;;;;;;;8.82;7.93;;;25.60;99.90;;;;;;6254451;28;90185;-70
2023/08/21 08:35:53;;;;;;;8.68;7.90;;;25.60;99.90;;;;;;6245137;27;89193;-70
2023/08/21 08:38:56;;;;;;;9.23;8.48;;;25.60;99.90;;;;;;6232572;28;89069;-70
2023/08/21 08:42:04;;;;;;;8.25;7.65;;;25.60;99.90;;;;;;6243544;28;88979;-70
2023/08/21 08:45:09;;;;;;;8.25;7.50;;;25.60;99.90;;;;;;6232252;28;89114;-70
2023/08/21 08:48:13;;;;;;;8.85;8.05;;;25.60;99.90;;;;;;6243916;28;88304;-70
2023/08/21 08:51:15;;;;;;;9.05;8.25;;;25.60;99.90;;;;;;6239182;27;89014;-70
2023/08/21 08:54:18;;;;;;;8.07;7.47;;;25.60;99.90;;;;;;6243350;28;88726;-70
2023/08/21 08:57:20;;;;;;;8.55;7.90;;;25.60;99.90;;;;;;6247246;28;89073;-70
2023/08/21 09:00:24;;;;;;;8.75;8.05;;;25.60;99.90;;;;;;6235974;28;89443;-71
2023/08/21 09:03:26;;;;;;;8.50;7.80;;;25.70;99.90;;;;;;6244948;28;90221;-71
2023/08/21 09:06:28;;;;;;;8.45;7.72;;;25.60;99.90;;;;;;6242796;28;89016;-70
2023/08/21 09:09:38;;;;;;;9.23;8.38;;;25.70;99.90;;;;;;6236888;28;89071;-70
2023/08/21 09:12:40;;;;;;;8.20;7.60;;;25.70;99.90;;;;;;6242468;28;89300;-71
2023/08/21 09:15:44;;;;;;;8.10;7.50;;;25.60;99.90;;;;;;6238961;28;87918;-70
2023/08/21 09:18:50;;;;;;;8.27;7.57;;;25.60;99.90;;;;;;6237234;28;88865;-71
2023/08/21 09:21:52;;;;;;;8.40;7.80;;;25.60;99.90;;;;;;6242781;28;88978;-71
2023/08/21 09:25:10;;;;;;;8.43;7.72;;;25.60;99.90;;;;;;6249492;28;88506;-70
2023/08/21 09:28:12;;;;;;;8.15;7.55;;;25.70;99.90;;;;;;6237410;28;89544;-71
2023/08/21 09:31:15;;;;;;;8.35;7.75;;;25.70;99.90;;;;;;6249270;28;89154;-70
2023/08/21 09:34:17;;;;;;;8.50;7.80;;;25.70;99.90;;;;;;6244936;28;90035;-71
2023/08/21 09:37:19;;;;;;;7.53;7.00;;;25.70;99.90;;;;;;6236974;28;89202;-70
2023/08/21 09:40:22;;;;;;;8.82;8.13;;;25.70;99.90;;;;;;6237256;28;89094;-70
2023/08/21 09:43:25;;;;;;;8.50;7.80;;;25.70;99.90;;;;;;6244941;28;89053;-70
2023/08/21 09:46:29;;;;;;;7.97;7.38;;;25.70;99.90;;;;;;6243347;28;89093;-70
2023/08/21 09:49:31;;;;;;;8.63;7.95;;;25.70;99.90;;;;;;6232587;28;89064;-71
2023/08/21 09:52:36;;;;;;;8.20;7.60;;;25.70;99.90;;;;;;6257355;27;88101;-70
2023/08/21 09:55:40;;;;;;;8.07;7.45;;;25.70;99.90;;;;;;6254329;28;88670;-70
2023/08/21 09:58:44;;;;;;;7.68;7.07;;;25.80;99.90;;;;;;6252299;28;89104;-70
2023/08/21 10:01:50;;;;;;;7.85;7.25;;;25.70;99.90;;;;;;6251149;28;89123;-70
2023/08/21 10:04:53;;;;;;;8.30;7.70;;;25.70;99.90;;;;;;6233628;28;90092;-70
2023/08/21 10:07:57;;;;;;;7.90;7.30;;;25.80;99.90;;;;;;6241809;28;89120;-70
2023/08/21 10:11:00;;;;;;;8.27;7.57;;;25.80;99.90;;;;;;6250340;28;88960;-70
2023/08/21 10:14:02;;;;;;;8.15;7.55;;;25.80;99.90;;;;;;6241560;28;89453;-70
2023/08/21 10:17:07;;;;;;;7.75;7.07;;;25.80;99.90;;;;;;6247222;28;89089;-70
2023/08/21 10:20:11;;;;;;;8.30;7.70;;;25.80;99.90;;;;;;6232295;28;89177;-70
2023/08/21 10:23:25;;;;;;;8.27;7.57;;;25.80;99.90;;;;;;6237296;27;89082;-70
2023/08/21 10:26:27;;;;;;;8.43;7.75;;;25.80;99.90;;;;;;6241119;28;88372;-71
2023/08/21 10:29:31;;;;;;;8.25;7.55;;;25.90;99.90;;;;;;6238175;28;89469;-70
2023/08/21 10:32:34;;;;;;;8.18;7.55;;;25.80;99.90;;;;;;6254155;27;89722;-70
2023/08/21 10:35:36;;;;;;;8.68;7.78;;;25.90;99.90;;;;;;6237524;27;90079;-70
2023/08/21 10:38:59;;;;;;;8.55;7.82;;;25.90;99.90;;;;;;6245203;28;89222;-69
2023/08/21 10:42:03;;;;;;;8.57;7.88;;;25.90;99.90;;;;;;6245848;28;89050;-69
2023/08/21 10:45:12;;;;;;;7.93;7.32;;;25.90;99.90;;;;;;6234740;28;89228;-70
2023/08/21 10:48:15;;;;;;;8.05;7.45;;;25.90;99.90;;;;;;6242654;28;89158;-70
2023/08/21 10:51:18;;;;;;;8.05;7.45;;;25.90;99.90;;;;;;6246101;28;88947;-69
2023/08/21 10:54:20;;;;;;;8.13;7.53;;;25.90;99.90;;;;;;6249147;27;89078;-71
2023/08/21 10:57:24;;;;;;;8.30;7.60;;;26.00;99.90;;;;;;6253270;28;88323;-71
2023/08/21 11:00:26;;;;;;;7.80;7.20;;;26.00;99.90;;;;;;6244021;27;88842;-71
2023/08/21 11:03:29;;;;;;;8.20;7.50;;;25.90;99.90;;;;;;6251769;28;88312;-71
2023/08/21 11:06:31;;;;;;;8.07;7.20;;;25.90;99.90;;;;;;6252620;28;89955;-71
2023/08/21 11:09:36;;;;;;;8.00;7.30;;;25.90;99.90;;;;;;6243072;28;89080;-71
2023/08/21 11:12:38;;;;;;;8.20;7.57;;;26.00;99.90;;;;;;6253661;27;89267;-71
2023/08/21 11:15:40;;;;;;;9.48;8.05;;;26.00;99.90;;;;;;6244147;27;89080;-69
2023/08/21 11:18:44;;;;;;;10.95;8.98;;;26.00;99.90;;;;;;6253683;27;89084;-69
2023/08/21 11:21:52;;;;;;;15.10;9.95;;;26.00;99.90;;;;;;6233152;28;88961;-70
2023/08/21 11:24:54;;;;;;;18.58;12.10;;;26.00;99.90;;;;;;6239292;28;89582;-69
2023/08/21 11:27:56;;;;;;;22.92;12.50;;;25.80;99.90;;;;;;6240617;28;88277;-69
2023/08/21 11:30:59;;;;;;;25.73;12.82;;;26.00;99.90;;;;;;6245470;28;89073;-68
2023/08/21 11:34:02;;;;;;;31.05;14.50;;;26.00;99.90;;;;;;6241304;28;89034;-69
2023/08/21 11:37:05;;;;;;;26.20;14.05;;;26.00;99.90;;;;;;6244929;27;90094;-69
2023/08/21 11:40:09;;;;;;;26.15;13.57;;;26.00;99.90;;;;;;6245951;28;89120;-68
2023/08/21 11:43:12;;;;;;;20.98;12.80;;;26.00;99.90;;;;;;6231081;28;89156;-69
2023/08/21 11:46:14;;;;;;;18.55;11.60;;;26.00;99.90;;;;;;6236805;28;89274;-70
2023/08/21 11:49:18;;;;;;;24.63;12.50;;;26.10;99.90;;;;;;6244527;28;89052;-70
2023/08/21 11:52:21;;;;;;;24.95;11.35;;;26.10;99.90;;;;;;6243178;27;88309;-70
2023/08/21 11:55:23;;;;;;;21.67;11.80;;;26.10;99.90;;;;;;6236774;28;89293;-70
2023/08/21 11:58:28;;;;;;;16.70;10.90;;;26.10;99.90;;;;;;6239640;28;88506;-70
2023/08/21 12:01:34;;;;;;;15.32;9.93;;;26.10;99.90;;;;;;6238583;28;89432;-71
2023/08/21 12:04:37;;;;;;;17.17;9.65;;;26.10;99.90;;;;;;6244054;28;89110;-71
2023/08/21 12:07:39;;;;;;;14.68;9.82;;;26.10;99.90;;;;;;6235930;28;89987;-71
2023/08/21 12:10:41;;;;;;;11.75;9.48;;;26.10;99.90;;;;;;6252823;27;89032;-71
2023/08/21 12:13:43;;;;;;;11.25;9.15;;;26.20;99.90;;;;;;6248353;28;88368;-71
2023/08/21 12:16:45;;;;;;;11.75;9.15;;;26.20;99.90;;;;;;6244346;28;89087;-71
2023/08/21 12:19:49;;;;;;;13.80;9.38;;;26.20;99.90;;;;;;6241217;27;89464;-71
2023/08/21 12:22:51;;;;;;;11.02;8.88;;;26.20;99.90;;;;;;6255773;28;89087;-71
2023/08/21 12:25:53;;;;;;;13.85;9.90;;;26.20;99.90;;;;;;6240508;28;88522;-71
2023/08/21 12:28:55;;;;;;;10.88;9.07;;;26.20;99.90;;;;;;6245833;28;88721;-70
2023/08/21 12:31:57;;;;;;;9.80;8.73;;;26.20;99.90;;;;;;6240056;27;89041;-71
2023/08/21 12:35:00;;;;;;;10.57;8.55;;;26.20;99.90;;;;;;6239587;28;89400;-71
2023/08/21 12:38:12;;;;;;;10.15;8.48;;;26.20;99.90;;;;;;6243498;28;90082;-71
2023/08/21 12:41:14;;;;;;;10.63;8.95;;;26.20;99.90;;;;;;6242151;28;88936;-71
2023/08/21 12:44:16;;;;;;;9.60;8.60;;;26.20;99.90;;;;;;6251941;28;89053;-71
2023/08/21 12:47:18;;;;;;;10.52;8.90;;;26.20;99.90;;;;;;6247706;27;89316;-71
2023/08/21 12:50:21;;;;;;;9.32;8.32;;;26.20;99.90;;;;;;6236730;28;89081;-72
2023/08/21 12:53:24;;;;;;;10.43;8.82;;;26.20;99.90;;;;;;6255053;27;89484;-71
2023/08/21 12:56:26;;;;;;;9.23;8.32;;;26.20;99.90;;;;;;6232367;28;89153;-72
2023/08/21 12:59:27;;;;;;;9.75;8.75;;;26.20;99.90;;;;;;6232287;28;88207;-71
2023/08/21 13:02:29;;;;;;;11.35;8.25;;;26.20;99.90;;;;;;6235342;28;89169;-71
2023/08/21 13:05:34;;;;;;;10.57;8.70;;;26.20;99.90;;;;;;6230771;28;89267;-71
2023/08/21 13:08:36;;;;;;;8.70;7.80;;;26.20;99.90;;;;;;6231263;28;90013;-72
2023/08/21 13:11:38;;;;;;;9.88;8.30;;;26.20;99.90;;;;;;6239391;27;89060;-71
2023/08/21 13:14:41;;;;;;;8.77;7.97;;;26.20;99.90;;;;;;6237142;28;87969;-71
2023/08/21 13:17:43;;;;;;;9.73;8.73;;;26.20;99.90;;;;;;6238670;27;89360;-71
2023/08/21 13:20:47;;;;;;;9.50;8.43;;;26.20;99.90;;;;;;6247108;28;89260;-72
2023/08/21 13:23:49;;;;;;;8.80;8.00;;;26.10;99.90;;;;;;6241528;27;89374;-71
2023/08/21 13:26:51;;;;;;;8.88;7.97;;;26.20;99.90;;;;;;6238293;28;89199;-72
2023/08/21 13:29:53;;;;;;;9.20;8.30;;;26.20;99.90;;;;;;6236109;28;87314;-71
2023/08/21 13:32:55;;;;;;;9.23;8.02;;;26.20;99.90;;;;;;6252837;27;89124;-72
2023/08/21 13:35:58;;;;;;;9.30;8.40;;;26.20;99.90;;;;;;6243523;27;89095;-71
2023/08/21 13:39:00;;;;;;;9.25;8.10;;;26.20;99.90;;;;;;6234670;28;90233;-71
2023/08/21 13:42:02;;;;;;;10.60;8.35;;;26.10;99.90;;;;;;6250745;27;89044;-71
2023/08/21 13:45:05;;;;;;;9.23;8.30;;;26.10;99.90;;;;;;6253325;28;89195;-71
2023/08/21 13:48:07;;;;;;;8.65;7.65;;;26.20;99.90;;;;;;6235634;27;89032;-71
2023/08/21 13:51:11;;;;;;;9.00;7.80;;;26.20;99.90;;;;;;6235072;28;89608;-71
2023/08/21 13:54:13;;;;;;;9.15;8.20;;;26.20;99.90;;;;;;6234351;28;89069;-71
2023/08/21 13:57:15;;;;;;;9.02;8.07;;;26.20;99.90;;;;;;6234218;28;89185;-72
2023/08/21 14:00:18;;;;;;;8.55;7.72;;;26.20;99.90;;;;;;6246414;28;88349;-71
2023/08/21 14:03:20;;;;;;;9.00;8.10;;;26.20;99.90;;;;;;6243628;28;88971;-72
2023/08/21 14:06:24;;;;;;;8.75;7.95;;;26.20;99.90;;;;;;6241896;28;89035;-72
2023/08/21 14:09:26;;;;;;;9.00;8.13;;;26.20;99.90;;;;;;6238592;28;88867;-72
2023/08/21 14:12:30;;;;;;;8.70;7.90;;;26.20;99.90;;;;;;6252455;28;89202;-72
2023/08/21 14:15:32;;;;;;;8.43;7.63;;;26.20;99.90;;;;;;6245979;28;89114;-72
2023/08/21 14:18:34;;;;;;;8.85;7.95;;;26.20;99.90;;;;;;6248181;27;89069;-72
2023/08/21 14:21:37;;;;;;;8.30;7.50;;;26.20;99.90;;;;;;6254557;27;89063;-72
2023/08/21 14:24:39;;;;;;;8.43;7.70;;;26.20;99.90;;;;;;6258440;27;89080;-72
2023/08/21 14:27:41;;;;;;;8.88;8.07;;;26.20;99.90;;;;;;6253245;27;89078;-72
2023/08/21 14:30:44;;;;;;;9.38;8.43;;;26.20;99.90;;;;;;6247686;27;87214;-72
2023/08/21 14:33:46;;;;;;;8.55;7.75;;;26.20;99.90;;;;;;6246194;27;88352;-72
2023/08/21 14:36:50;;;;;;;8.55;7.75;;;26.20;99.90;;;;;;6235490;27;89011;-72
2023/08/21 14:39:52;;;;;;;8.90;8.10;;;26.20;99.90;;;;;;6245962;28;88917;-72
2023/08/21 14:42:54;;;;;;;8.18;7.38;;;26.20;99.90;;;;;;6245548;27;89088;-72
2023/08/21 14:45:56;;;;;;;8.55;7.75;;;26.20;99.90;;;;;;6238137;27;89089;-72
2023/08/21 14:48:58;;;;;;;8.90;8.10;;;26.20;99.90;;;;;;6241470;27;89096;-73
2023/08/21 14:52:01;;;;;;;9.38;8.38;;;26.30;99.90;;;;;;6246227;27;89065;-72
2023/08/21 14:55:03;;;;;;;8.90;7.88;;;26.20;99.90;;;;;;6243695;27;89051;-72
2023/08/21 14:58:07;;;;;;;8.90;8.10;;;26.30;99.90;;;;;;6242809;27;89183;-72
2023/08/21 15:01:10;;;;;;;8.32;7.47;;;26.20;99.90;;;;;;6238279;27;88434;-72
2023/08/21 15:04:12;;;;;;;8.35;7.65;;;26.20;99.90;;;;;;6250008;27;89147;-72
2023/08/21 15:07:16;;;;;;;9.00;8.10;;;26.20;99.90;;;;;;6246035;27;89042;-72
2023/08/21 15:10:18;;;;;;;8.88;8.00;;;26.20;99.90;;;;;;6244698;27;90067;-73
2023/08/21 15:13:20;;;;;;;8.23;7.53;;;26.20;99.90;;;;;;6240665;27;89173;-72
2023/08/21 15:16:22;;;;;;;8.20;7.40;;;26.30;99.90;;;;;;6246998;27;89001;-72
2023/08/21 15:19:24;;;;;;;8.40;7.65;;;26.30;99.90;;;;;;6246107;27;89016;-72
2023/08/21 15:22:27;;;;;;;8.30;7.40;;;26.30;99.90;;;;;;6254507;27;91223;-73
2023/08/21 15:25:30;;;;;;;8.40;7.60;;;26.30;99.90;;;;;;6257994;27;89394;-71
2023/08/21 15:28:32;;;;;;;8.68;7.88;;;26.30;99.90;;;;;;6234382;28;89052;-72
2023/08/21 15:31:34;;;;;;;8.27;7.57;;;26.30;99.90;;;;;;6247106;27;88697;-71
2023/08/21 15:34:36;;;;;;;8.40;7.60;;;26.30;99.90;;;;;;6246975;27;89006;-72
2023/08/21 15:37:39;;;;;;;8.40;7.53;;;26.30;99.90;;;;;;6236687;28;89435;-72
2023/08/21 15:40:41;;;;;;;8.90;8.10;;;26.30;99.90;;;;;;6242477;28;90303;-72
2023/08/21 15:43:43;;;;;;;7.93;7.22;;;26.30;99.90;;;;;;6234055;28;89036;-71
2023/08/21 15:46:45;;;;;;;8.20;7.50;;;26.30;99.90;;;;;;6252468;27;89153;-72
2023/08/21 15:49:47;;;;;;;8.27;7.57;;;26.30;99.90;;;;;;6244142;28;91270;-72